Time;durP1;ratioP1;P1;durP2;ratioP2;P2;SDS_P1;SDS_P2;PMS_P1;PMS_P2;Temp;Humidity;BMP_temperature;BMP_pressure;BME280_temperature;BME280_humidity;BME280_pressure;Samples;Min_cycle;Max_cycle;Signal;HPM_P1;HPM_P2
2022/04/03 00:00:42;;;;;;;32.92;26.48;;;;;;;;;;5070872;28;20413;-67
2022/04/03 00:03:09;;;;;;;33.70;26.20;;;;;;;;;;5069083;28;20187;-69
2022/04/03 00:05:38;;;;;;;31.52;25.40;;;;;;;;;;5072519;28;20894;-71
2022/04/03 00:08:05;;;;;;;33.67;26.63;;;;;;;;;;5073200;28;20227;-70
2022/04/03 00:10:31;;;;;;;30.35;24.98;;;;;;;;;;5073216;28;20191;-70
2022/04/03 00:13:01;;;;;;;32.10;26.13;;;;;;;;;;5073182;28;20612;-70
2022/04/03 00:15:27;;;;;;;32.45;26.10;;;;;;;;;;5073045;28;20180;-70
2022/04/03 00:17:53;;;;;;;33.37;26.60;;;;;;;;;;5072967;28;20225;-74
2022/04/03 00:20:22;;;;;;;35.00;30.80;;;;;;;;;;5071996;28;20417;-71
2022/04/03 00:22:49;;;;;;;31.88;27.08;;;;;;;;;;5073071;28;20171;-70
2022/04/03 00:25:16;;;;;;;36.05;28.05;;;;;;;;;;5073054;28;20218;-72
2022/04/03 00:27:42;;;;;;;32.25;25.83;;;;;;;;;;5073015;28;20200;-71
2022/04/03 00:30:08;;;;;;;33.33;26.60;;;;;;;;;;5072910;28;20175;-71
2022/04/03 00:32:34;;;;;;;35.38;25.65;;;;;;;;;;5072876;28;20252;-72
2022/04/03 00:35:01;;;;;;;33.85;26.40;;;;;;;;;;5072959;28;20168;-70
2022/04/03 00:37:30;;;;;;;35.97;26.80;;;;;;;;;;5072872;28;20703;-71
2022/04/03 00:40:01;;;;;;;32.78;26.23;;;;;;;;;;5072727;28;20265;-71
2022/04/03 00:42:27;;;;;;;33.72;25.33;;;;;;;;;;5074147;28;20183;-70
2022/04/03 00:44:53;;;;;;;38.35;27.73;;;;;;;;;;5076458;28;20249;-71
2022/04/03 00:47:20;;;;;;;33.50;25.75;;;;;;;;;;5076496;28;20671;-71
2022/04/03 00:49:49;;;;;;;33.80;25.75;;;;;;;;;;5076356;28;20176;-70
2022/04/03 00:52:15;;;;;;;33.38;25.40;;;;;;;;;;5076509;28;20245;-71
2022/04/03 00:54:41;;;;;;;33.30;26.13;;;;;;;;;;5076392;28;20627;-71
2022/04/03 00:57:07;;;;;;;33.22;26.17;;;;;;;;;;5076281;28;20394;-69
2022/04/03 00:59:36;;;;;;;32.55;26.38;;;;;;;;;;5074989;28;20247;-70
2022/04/03 01:02:03;;;;;;;31.88;24.73;;;;;;;;;;5074946;28;20179;-69
2022/04/03 01:04:29;;;;;;;33.55;25.55;;;;;;;;;;5076092;28;20662;-70
2022/04/03 01:06:55;;;;;;;32.60;24.70;;;;;;;;;;5076123;28;20221;-70
2022/04/03 01:09:21;;;;;;;34.03;25.33;;;;;;;;;;5076075;28;20164;-70
2022/04/03 01:11:47;;;;;;;33.60;24.73;;;;;;;;;;5076014;28;20518;-70
2022/04/03 01:14:13;;;;;;;33.40;26.17;;;;;;;;;;5075977;28;20414;-70
2022/04/03 01:16:39;;;;;;;30.20;23.73;;;;;;;;;;5076068;28;20168;-71
2022/04/03 01:19:05;;;;;;;29.65;23.98;;;;;;;;;;5075847;28;20445;-70
2022/04/03 01:21:31;;;;;;;32.00;25.43;;;;;;;;;;5075869;28;20259;-70
2022/04/03 01:23:57;;;;;;;31.13;24.57;;;;;;;;;;5074401;28;20418;-71
2022/04/03 01:26:24;;;;;;;25.73;21.58;;;;;;;;;;5075757;28;20425;-70
2022/04/03 01:28:53;;;;;;;31.95;23.85;;;;;;;;;;5075714;28;20191;-70
2022/04/03 01:31:19;;;;;;;32.95;23.27;;;;;;;;;;5075630;28;20247;-71
2022/04/03 01:33:45;;;;;;;33.75;22.88;;;;;;;;;;5075538;28;20176;-71
2022/04/03 01:36:11;;;;;;;27.63;23.42;;;;;;;;;;5075569;28;20209;-70
2022/04/03 01:38:37;;;;;;;31.70;24.35;;;;;;;;;;5074290;28;20534;-70
2022/04/03 01:41:03;;;;;;;29.88;23.38;;;;;;;;;;5075373;28;20230;-70
2022/04/03 01:43:29;;;;;;;29.90;24.30;;;;;;;;;;5075380;28;20632;-70
2022/04/03 01:45:55;;;;;;;31.25;24.58;;;;;;;;;;5075304;28;20466;-70
2022/04/03 01:48:24;;;;;;;29.48;23.90;;;;;;;;;;5075250;28;20226;-70
2022/04/03 01:50:50;;;;;;;33.35;24.63;;;;;;;;;;5075250;28;20168;-70
2022/04/03 01:53:16;;;;;;;26.65;22.70;;;;;;;;;;5074717;28;20168;-69
2022/04/03 01:55:42;;;;;;;32.10;23.47;;;;;;;;;;5073810;28;20183;-70
2022/04/03 01:58:09;;;;;;;24.00;21.40;;;;;;;;;;5075159;28;20902;-70
2022/04/03 02:00:35;;;;;;;27.00;21.65;;;;;;;;;;5075141;28;20172;-69
2022/04/03 02:03:01;;;;;;;26.10;21.60;;;;;;;;;;5075261;28;20270;-71
2022/04/03 02:05:27;;;;;;;33.13;22.07;;;;;;;;;;5074833;28;20770;-70
2022/04/03 02:07:53;;;;;;;25.53;21.70;;;;;;;;;;5074795;28;20516;-70
2022/04/03 02:10:19;;;;;;;23.10;20.60;;;;;;;;;;5073590;28;20450;-71
2022/04/03 02:12:48;;;;;;;26.95;22.15;;;;;;;;;;5074892;28;20409;-70
2022/04/03 02:15:15;;;;;;;28.60;22.40;;;;;;;;;;5074759;28;20642;-70
2022/04/03 02:17:41;;;;;;;28.38;21.20;;;;;;;;;;5074709;28;20183;-70
2022/04/03 02:20:12;;;;;;;24.00;20.45;;;;;;;;;;5073477;28;20213;-69
2022/04/03 02:22:38;;;;;;;28.95;21.88;;;;;;;;;;5074800;28;20678;-70
2022/04/03 02:25:13;;;;;;;26.30;22.20;;;;;;;;;;5074541;28;20299;-70
2022/04/03 02:27:40;;;;;;;24.40;21.15;;;;;;;;;;5074935;28;20497;-71
2022/04/03 02:30:10;;;;;;;23.98;20.30;;;;;;;;;;5074766;28;20172;-70
2022/04/03 02:32:37;;;;;;;28.52;21.17;;;;;;;;;;5074434;28;20160;-70
2022/04/03 02:35:07;;;;;;;28.70;22.00;;;;;;;;;;5073186;28;20180;-69
2022/04/03 02:37:34;;;;;;;25.67;21.77;;;;;;;;;;5074395;28;20168;-69
2022/04/03 02:40:00;;;;;;;27.77;23.05;;;;;;;;;;5072925;28;20227;-69
2022/04/03 02:42:26;;;;;;;26.67;21.83;;;;;;;;;;5074216;28;20192;-70
2022/04/03 02:44:52;;;;;;;31.50;23.50;;;;;;;;;;5074186;28;20465;-70
2022/04/03 02:47:22;;;;;;;36.50;24.23;;;;;;;;;;5074092;28;20595;-70
2022/04/03 02:49:48;;;;;;;33.40;24.45;;;;;;;;;;5074084;28;20426;-69
2022/04/03 02:52:14;;;;;;;35.43;26.10;;;;;;;;;;5072762;28;20195;-70
2022/04/03 02:54:40;;;;;;;30.80;24.70;;;;;;;;;;5073976;28;20414;-69
2022/04/03 02:57:09;;;;;;;34.57;26.00;;;;;;;;;;5074118;28;20418;-69
2022/04/03 02:59:35;;;;;;;32.08;24.50;;;;;;;;;;5073966;28;20414;-70
2022/04/03 03:02:01;;;;;;;32.07;24.60;;;;;;;;;;5074134;28;20176;-70
2022/04/03 03:04:27;;;;;;;33.53;26.40;;;;;;;;;;5073092;28;20461;-70
2022/04/03 03:06:53;;;;;;;35.53;25.20;;;;;;;;;;5073622;28;20765;-70
2022/04/03 03:09:19;;;;;;;33.33;25.70;;;;;;;;;;5072535;28;20402;-70
2022/04/03 03:11:45;;;;;;;40.97;27.65;;;;;;;;;;5072463;28;20274;-70
2022/04/03 03:14:11;;;;;;;37.17;27.13;;;;;;;;;;5072429;28;20259;-70
2022/04/03 03:16:37;;;;;;;40.05;26.75;;;;;;;;;;5073613;28;20442;-70
2022/04/03 03:19:03;;;;;;;33.60;26.20;;;;;;;;;;5073540;28;20265;-70
2022/04/03 03:21:31;;;;;;;37.40;27.90;;;;;;;;;;5072300;28;20410;-70
2022/04/03 03:23:57;;;;;;;35.40;26.35;;;;;;;;;;5073382;28;20782;-70
2022/04/03 03:26:23;;;;;;;37.87;26.30;;;;;;;;;;5072303;28;20172;-70
2022/04/03 03:28:49;;;;;;;38.83;27.27;;;;;;;;;;5073449;28;20410;-69
2022/04/03 03:31:15;;;;;;;37.27;27.67;;;;;;;;;;5073502;28;20421;-69
2022/04/03 03:33:41;;;;;;;38.72;28.35;;;;;;;;;;5073684;28;20414;-70
2022/04/03 03:36:10;;;;;;;36.93;26.83;;;;;;;;;;5073331;28;20246;-70
2022/04/03 03:38:36;;;;;;;40.70;29.00;;;;;;;;;;5072033;28;20414;-69
2022/04/03 03:41:03;;;;;;;43.88;28.20;;;;;;;;;;5073294;28;20212;-69
2022/04/03 03:43:29;;;;;;;40.25;28.15;;;;;;;;;;5073412;28;20171;-69
2022/04/03 03:45:56;;;;;;;40.03;29.30;;;;;;;;;;5073258;28;20233;-70
2022/04/03 03:48:22;;;;;;;43.13;28.45;;;;;;;;;;5072248;28;20238;-70
2022/04/03 03:50:48;;;;;;;41.97;27.80;;;;;;;;;;5073239;28;20160;-70
2022/04/03 03:53:14;;;;;;;37.50;28.63;;;;;;;;;;5073250;28;20166;-71
2022/04/03 03:55:40;;;;;;;37.67;29.03;;;;;;;;;;5073162;28;20777;-70
2022/04/03 03:58:07;;;;;;;39.23;29.00;;;;;;;;;;5073269;28;20441;-70
2022/04/03 04:00:34;;;;;;;41.28;27.45;;;;;;;;;;5073211;28;20402;-70
2022/04/03 04:03:00;;;;;;;36.35;27.10;;;;;;;;;;5073192;28;20285;-70
2022/04/03 04:05:26;;;;;;;43.00;30.13;;;;;;;;;;5073044;28;20305;-69
2022/04/03 04:07:52;;;;;;;39.30;28.63;;;;;;;;;;5073103;28;20394;-70
2022/04/03 04:10:18;;;;;;;38.60;28.83;;;;;;;;;;5071865;28;20430;-70
2022/04/03 04:12:46;;;;;;;39.33;27.45;;;;;;;;;;5071807;28;20179;-69
2022/04/03 04:15:13;;;;;;;40.30;29.02;;;;;;;;;;5071822;28;20274;-69
2022/04/03 04:17:40;;;;;;;39.30;29.42;;;;;;;;;;5076377;28;20175;-70
2022/04/03 04:20:12;;;;;;;39.50;28.73;;;;;;;;;;5076985;28;20178;-69
2022/04/03 04:22:38;;;;;;;39.13;27.73;;;;;;;;;;5077078;28;20209;-70
2022/04/03 04:25:05;;;;;;;41.08;29.42;;;;;;;;;;5076822;28;20205;-70
2022/04/03 04:27:31;;;;;;;42.00;28.05;;;;;;;;;;5076785;28;20160;-70
2022/04/03 04:29:57;;;;;;;36.75;27.63;;;;;;;;;;5076649;28;20218;-70
2022/04/03 04:32:24;;;;;;;42.97;30.13;;;;;;;;;;5076723;28;20176;-70
2022/04/03 04:34:50;;;;;;;42.95;29.17;;;;;;;;;;5076621;28;20580;-70
2022/04/03 04:37:16;;;;;;;45.08;30.05;;;;;;;;;;5076667;28;20240;-69
2022/04/03 04:39:45;;;;;;;44.58;30.05;;;;;;;;;;5076441;28;20168;-69
2022/04/03 04:42:12;;;;;;;42.80;30.40;;;;;;;;;;5075169;28;20558;-69
2022/04/03 04:44:38;;;;;;;45.75;30.67;;;;;;;;;;5076698;28;20208;-70
2022/04/03 04:47:04;;;;;;;45.67;29.85;;;;;;;;;;5076427;28;20186;-70
2022/04/03 04:49:30;;;;;;;40.42;29.33;;;;;;;;;;5076356;28;20627;-70
2022/04/03 04:51:56;;;;;;;42.07;28.13;;;;;;;;;;5076356;28;20179;-70
2022/04/03 04:54:23;;;;;;;47.17;31.30;;;;;;;;;;5076255;28;20410;-70
2022/04/03 04:56:49;;;;;;;44.42;29.55;;;;;;;;;;5075012;28;20426;-70
2022/04/03 04:59:15;;;;;;;41.75;29.73;;;;;;;;;;5076233;28;20658;-70
2022/04/03 05:01:41;;;;;;;50.33;30.33;;;;;;;;;;5076224;28;20176;-70
2022/04/03 05:04:07;;;;;;;41.13;28.75;;;;;;;;;;5076025;28;20410;-70
2022/04/03 05:06:33;;;;;;;42.80;27.50;;;;;;;;;;5076101;28;20172;-70
2022/04/03 05:08:59;;;;;;;39.60;27.85;;;;;;;;;;5075997;28;20413;-70
2022/04/03 05:11:26;;;;;;;39.20;27.75;;;;;;;;;;5076063;28;20180;-69
2022/04/03 05:13:52;;;;;;;41.90;27.60;;;;;;;;;;5076016;28;20160;-70
2022/04/03 05:16:19;;;;;;;40.80;27.35;;;;;;;;;;5075893;28;20167;-69
2022/04/03 05:18:48;;;;;;;37.78;26.60;;;;;;;;;;5075948;28;20172;-70
2022/04/03 05:21:14;;;;;;;37.10;27.55;;;;;;;;;;5075895;28;20160;-69
2022/04/03 05:23:41;;;;;;;39.15;27.95;;;;;;;;;;5074340;28;20202;-69
2022/04/03 05:26:07;;;;;;;37.80;28.20;;;;;;;;;;5075697;28;20203;-69
2022/04/03 05:28:35;;;;;;;37.03;26.92;;;;;;;;;;5074821;28;20186;-69
2022/04/03 05:31:01;;;;;;;41.30;28.48;;;;;;;;;;5075749;28;20156;-69
2022/04/03 05:33:27;;;;;;;38.07;27.40;;;;;;;;;;5075602;28;20646;-69
2022/04/03 05:35:53;;;;;;;43.13;27.35;;;;;;;;;;5074226;28;20504;-70
2022/04/03 05:38:19;;;;;;;37.50;26.43;;;;;;;;;;5075526;28;20251;-71
2022/04/03 05:40:45;;;;;;;39.87;27.33;;;;;;;;;;5075349;28;20523;-70
2022/04/03 05:43:11;;;;;;;34.70;26.15;;;;;;;;;;5075457;28;20847;-69
2022/04/03 05:45:40;;;;;;;37.28;24.92;;;;;;;;;;5075380;28;20282;-69
2022/04/03 05:48:07;;;;;;;33.75;24.65;;;;;;;;;;5074028;28;20176;-70
2022/04/03 05:50:33;;;;;;;31.83;25.23;;;;;;;;;;5075291;28;20709;-69
2022/04/03 05:52:59;;;;;;;36.63;25.08;;;;;;;;;;5075274;28;20259;-69
2022/04/03 05:55:26;;;;;;;35.00;25.15;;;;;;;;;;5073895;28;20198;-69
2022/04/03 05:57:52;;;;;;;32.83;24.60;;;;;;;;;;5075220;28;20180;-69
2022/04/03 06:00:20;;;;;;;38.03;26.00;;;;;;;;;;5075451;28;20175;-70
2022/04/03 06:02:53;;;;;;;49.72;34.05;;;;;;;;;;5075214;28;20156;-70
2022/04/03 06:05:24;;;;;;;36.35;23.85;;;;;;;;;;5075142;28;20196;-70
2022/04/03 06:07:50;;;;;;;34.72;25.88;;;;;;;;;;5075074;28;20167;-70
2022/04/03 06:10:16;;;;;;;29.92;24.25;;;;;;;;;;5075505;28;20631;-71
2022/04/03 06:12:55;;;;;;;29.38;23.10;;;;;;;;;;5074999;28;20163;-71
2022/04/03 06:15:21;;;;;;;37.83;24.90;;;;;;;;;;5075138;28;20172;-71
2022/04/03 06:17:48;;;;;;;30.92;21.92;;;;;;;;;;5074860;28;20192;-71
2022/04/03 06:20:14;;;;;;;31.30;22.60;;;;;;;;;;5074731;28;20176;-71
2022/04/03 06:22:40;;;;;;;32.80;24.40;;;;;;;;;;5074660;28;20710;-71
2022/04/03 06:25:07;;;;;;;34.13;23.63;;;;;;;;;;5074446;28;20442;-71
2022/04/03 06:27:34;;;;;;;37.78;25.05;;;;;;;;;;5074514;28;20406;-71
2022/04/03 06:30:00;;;;;;;31.50;22.52;;;;;;;;;;5074785;28;20167;-69
2022/04/03 06:32:26;;;;;;;28.88;23.02;;;;;;;;;;5074337;28;20179;-68
2022/04/03 06:34:54;;;;;;;33.30;24.37;;;;;;;;;;5074314;28;20540;-70
2022/04/03 06:37:20;;;;;;;33.72;24.52;;;;;;;;;;5074259;28;20402;-71
2022/04/03 06:39:46;;;;;;;34.90;24.47;;;;;;;;;;5074093;28;20175;-71
2022/04/03 06:42:12;;;;;;;32.23;24.70;;;;;;;;;;5072919;28;20422;-71
2022/04/03 06:44:39;;;;;;;34.83;24.65;;;;;;;;;;5074180;28;20546;-71
2022/04/03 06:47:05;;;;;;;31.33;24.63;;;;;;;;;;5074204;28;20168;-71
2022/04/03 06:49:32;;;;;;;28.75;22.92;;;;;;;;;;5074021;28;20176;-70
2022/04/03 06:51:58;;;;;;;31.88;24.33;;;;;;;;;;5074087;28;20171;-71
2022/04/03 06:54:24;;;;;;;31.17;23.52;;;;;;;;;;5074009;28;20526;-71
2022/04/03 06:56:52;;;;;;;37.67;25.42;;;;;;;;;;5073962;28;20538;-71
2022/04/03 06:59:18;;;;;;;34.70;26.00;;;;;;;;;;5073917;28;20167;-71
2022/04/03 07:01:44;;;;;;;43.30;30.40;;;;;;;;;;5073903;28;20646;-70
2022/04/03 07:04:10;;;;;;;35.00;27.55;;;;;;;;;;5073723;28;20180;-71
2022/04/03 07:06:36;;;;;;;33.70;24.90;;;;;;;;;;5073766;28;20182;-71
2022/04/03 07:09:02;;;;;;;31.67;22.30;;;;;;;;;;5073760;28;20811;-71
2022/04/03 07:11:28;;;;;;;33.63;23.60;;;;;;;;;;5073702;28;20505;-71
2022/04/03 07:13:54;;;;;;;36.53;25.80;;;;;;;;;;5073702;28;20413;-70
2022/04/03 07:16:20;;;;;;;31.83;24.60;;;;;;;;;;5073692;28;20406;-67
2022/04/03 07:18:46;;;;;;;30.37;23.53;;;;;;;;;;5073587;28;20432;-67
2022/04/03 07:21:12;;;;;;;35.90;25.75;;;;;;;;;;5073604;28;20398;-69
2022/04/03 07:23:38;;;;;;;30.63;24.30;;;;;;;;;;5073587;28;20194;-69
2022/04/03 07:26:05;;;;;;;31.97;25.17;;;;;;;;;;5073505;28;20563;-69
2022/04/03 07:28:31;;;;;;;31.27;24.52;;;;;;;;;;5073715;28;20394;-70
2022/04/03 07:30:58;;;;;;;30.85;24.23;;;;;;;;;;5073517;28;20176;-67
2022/04/03 07:33:24;;;;;;;32.35;23.67;;;;;;;;;;5073505;28;20168;-66
2022/04/03 07:35:50;;;;;;;31.63;24.45;;;;;;;;;;5073627;28;20172;-68
2022/04/03 07:38:16;;;;;;;28.95;24.15;;;;;;;;;;5073358;28;20179;-67
2022/04/03 07:40:42;;;;;;;31.98;24.90;;;;;;;;;;5073262;28;20249;-67
2022/04/03 07:43:08;;;;;;;32.00;26.20;;;;;;;;;;5073616;28;20218;-69
2022/04/03 07:45:34;;;;;;;32.35;25.48;;;;;;;;;;5072066;28;20613;-69
2022/04/03 07:48:00;;;;;;;28.30;23.53;;;;;;;;;;5073290;28;20163;-68
2022/04/03 07:50:27;;;;;;;31.07;22.57;;;;;;;;;;5073852;28;20792;-68
2022/04/03 07:52:53;;;;;;;33.08;23.25;;;;;;;;;;5079803;28;20439;-68
2022/04/03 07:55:19;;;;;;;26.23;22.30;;;;;;;;;;5079953;28;20179;-68
2022/04/03 07:57:45;;;;;;;35.27;25.53;;;;;;;;;;5079810;28;20390;-68
2022/04/03 08:00:12;;;;;;;29.20;22.77;;;;;;;;;;5079959;28;20770;-69
2022/04/03 08:02:39;;;;;;;30.33;23.23;;;;;;;;;;5079808;28;20175;-69
2022/04/03 08:05:05;;;;;;;25.90;21.63;;;;;;;;;;5079675;28;20231;-70
2022/04/03 08:07:45;;;;;;;29.80;24.08;;;;;;;;;;5078590;28;20528;-69
2022/04/03 08:10:12;;;;;;;24.63;21.60;;;;;;;;;;5079861;28;20159;-69
2022/04/03 08:12:39;;;;;;;25.17;21.30;;;;;;;;;;5078491;28;20168;-68
2022/04/03 08:15:05;;;;;;;28.63;21.85;;;;;;;;;;5079780;28;20164;-69
2022/04/03 08:17:32;;;;;;;24.23;19.50;;;;;;;;;;5079763;28;20168;-68
2022/04/03 08:19:58;;;;;;;22.33;19.70;;;;;;;;;;5078389;28;20184;-70
2022/04/03 08:22:24;;;;;;;28.42;22.40;;;;;;;;;;5078511;28;20210;-69
2022/04/03 08:24:50;;;;;;;26.23;22.47;;;;;;;;;;5079577;28;20223;-69
2022/04/03 08:27:19;;;;;;;32.65;25.13;;;;;;;;;;5079614;28;20493;-67
2022/04/03 08:29:45;;;;;;;28.13;21.90;;;;;;;;;;5079721;28;20167;-67
2022/04/03 08:32:12;;;;;;;24.30;20.30;;;;;;;;;;5079611;28;20276;-68
2022/04/03 08:34:39;;;;;;;23.00;19.35;;;;;;;;;;5079663;28;20650;-69
2022/04/03 08:37:05;;;;;;;24.88;20.58;;;;;;;;;;5078256;28;20732;-69
2022/04/03 08:39:31;;;;;;;23.90;20.03;;;;;;;;;;5078098;28;20223;-69
2022/04/03 08:41:57;;;;;;;21.95;19.60;;;;;;;;;;5079467;28;20406;-67
2022/04/03 08:44:23;;;;;;;22.80;20.37;;;;;;;;;;5079454;28;20175;-69
2022/04/03 08:46:49;;;;;;;33.92;27.63;;;;;;;;;;5079447;28;20442;-69
2022/04/03 08:49:16;;;;;;;20.10;18.00;;;;;;;;;;5079345;28;20292;-70
2022/04/03 08:51:43;;;;;;;19.55;17.13;;;;;;;;;;5078097;28;20179;-69
2022/04/03 08:54:10;;;;;;;18.92;16.73;;;;;;;;;;5079670;28;20286;-68
2022/04/03 08:56:36;;;;;;;18.98;16.45;;;;;;;;;;5079364;28;20259;-69
2022/04/03 08:59:02;;;;;;;17.58;15.88;;;;;;;;;;5079431;28;20187;-69
2022/04/03 09:01:29;;;;;;;19.23;17.23;;;;;;;;;;5079432;28;20168;-68
2022/04/03 09:03:55;;;;;;;19.75;16.80;;;;;;;;;;5075154;28;20471;-69
2022/04/03 09:06:24;;;;;;;18.92;15.68;;;;;;;;;;5076119;28;20203;-67
2022/04/03 09:08:50;;;;;;;17.90;16.00;;;;;;;;;;5076006;28;20168;-68
2022/04/03 09:11:16;;;;;;;19.83;17.13;;;;;;;;;;5076032;28;20549;-68
2022/04/03 09:13:43;;;;;;;17.25;15.45;;;;;;;;;;5075971;28;20785;-68
2022/04/03 09:16:10;;;;;;;17.55;15.75;;;;;;;;;;5076035;28;20168;-68
2022/04/03 09:18:49;;;;;;;17.67;15.90;;;;;;;;;;5075913;28;20183;-70
2022/04/03 09:21:21;;;;;;;19.45;16.77;;;;;;;;;;5075849;28;20172;-69
2022/04/03 09:24:07;;;;;;;16.88;15.27;;;;;;;;;;5075826;28;20171;-69
2022/04/03 09:26:34;;;;;;;17.97;16.07;;;;;;;;;;5074522;28;20276;-69
2022/04/03 09:29:10;;;;;;;16.60;14.90;;;;;;;;;;5075772;28;20936;-68
2022/04/03 09:31:37;;;;;;;16.65;14.85;;;;;;;;;;5075686;28;20414;-70
2022/04/03 09:34:04;;;;;;;17.23;15.40;;;;;;;;;;5074283;28;20176;-69
2022/04/03 09:36:34;;;;;;;17.33;15.47;;;;;;;;;;5075523;28;20402;-70
2022/04/03 09:39:06;;;;;;;17.23;15.50;;;;;;;;;;5074198;28;20417;-69
2022/04/03 09:41:33;;;;;;;15.87;14.27;;;;;;;;;;5075283;28;20476;-69
2022/04/03 09:43:59;;;;;;;18.38;14.40;;;;;;;;;;5075468;28;20389;-69
2022/04/03 09:46:29;;;;;;;18.10;15.70;;;;;;;;;;5075285;28;20260;-69
2022/04/03 09:48:56;;;;;;;18.27;15.13;;;;;;;;;;5075341;28;20164;-70
2022/04/03 09:51:22;;;;;;;15.23;13.73;;;;;;;;;;5073864;28;20418;-71
2022/04/03 09:53:49;;;;;;;15.63;14.13;;;;;;;;;;5075255;28;20197;-70
2022/04/03 09:56:37;;;;;;;15.20;13.70;;;;;;;;;;5075176;28;20167;-69
2022/04/03 09:59:07;;;;;;;15.05;13.52;;;;;;;;;;5075377;28;20394;-70
2022/04/03 10:01:35;;;;;;;14.85;13.25;;;;;;;;;;5075173;28;20195;-71
2022/04/03 10:04:02;;;;;;;15.00;13.60;;;;;;;;;;5074973;28;20254;-68
2022/04/03 10:06:28;;;;;;;13.85;12.57;;;;;;;;;;5073579;28;20705;-69
2022/04/03 10:08:54;;;;;;;14.57;13.17;;;;;;;;;;5074980;28;20160;-67
2022/04/03 10:11:21;;;;;;;13.80;12.50;;;;;;;;;;5074860;28;20410;-68
2022/04/03 10:13:47;;;;;;;14.47;13.17;;;;;;;;;;5074501;28;20394;-68
2022/04/03 10:16:14;;;;;;;14.40;12.53;;;;;;;;;;5074925;28;20381;-69
2022/04/03 10:18:41;;;;;;;15.40;13.80;;;;;;;;;;5074683;28;20392;-68
2022/04/03 10:21:15;;;;;;;12.63;11.50;;;;;;;;;;5074711;28;20400;-67
2022/04/03 10:23:42;;;;;;;10.00;9.30;;;;;;;;;;5074821;28;20744;-69
2022/04/03 10:26:09;;;;;;;11.20;10.20;;;;;;;;;;5074483;28;20436;-69
2022/04/03 10:28:35;;;;;;;11.17;10.27;;;;;;;;;;5074511;28;20381;-68
2022/04/03 10:31:08;;;;;;;9.97;8.97;;;;;;;;;;5073235;28;20422;-68
2022/04/03 10:33:38;;;;;;;8.50;8.00;;;;;;;;;;5074378;28;20744;-71
2022/04/03 10:36:08;;;;;;;9.00;8.40;;;;;;;;;;5074356;28;20433;-70
2022/04/03 10:38:35;;;;;;;7.57;7.10;;;;;;;;;;5074404;28;20409;-67
2022/04/03 10:41:02;;;;;;;9.23;8.47;;;;;;;;;;5074173;28;20470;-67
2022/04/03 10:43:32;;;;;;;7.47;7.17;;;;;;;;;;5074235;28;20769;-67
2022/04/03 10:45:58;;;;;;;7.50;7.10;;;;;;;;;;5072871;28;20853;-69
2022/04/03 10:48:28;;;;;;;7.57;7.07;;;;;;;;;;5074065;28;20412;-68
2022/04/03 10:51:00;;;;;;;7.83;7.27;;;;;;;;;;5072686;28;20392;-68
2022/04/03 10:53:28;;;;;;;7.37;6.90;;;;;;;;;;5074003;28;20377;-68
2022/04/03 10:55:57;;;;;;;7.30;6.90;;;;;;;;;;5074051;28;20413;-69
2022/04/03 10:58:23;;;;;;;7.40;6.90;;;;;;;;;;5073921;28;20420;-68
2022/04/03 11:00:50;;;;;;;10.87;9.87;;;;;;;;;;5073985;28;20785;-69
2022/04/03 11:03:16;;;;;;;9.33;8.40;;;;;;;;;;5073770;28;20384;-71
2022/04/03 11:05:43;;;;;;;9.17;8.47;;;;;;;;;;5073658;28;20775;-70
2022/04/03 11:08:09;;;;;;;7.57;7.17;;;;;;;;;;5073814;28;20369;-70
2022/04/03 11:10:50;;;;;;;7.70;7.20;;;;;;;;;;5073722;28;20388;-70
2022/04/03 11:13:36;;;;;;;7.07;6.70;;;;;;;;;;5073774;28;20477;-69
2022/04/03 11:16:15;;;;;;;7.90;7.40;;;;;;;;;;5073490;28;20945;-69
2022/04/03 11:18:47;;;;;;;7.43;6.70;;;;;;;;;;5073619;28;20496;-70
2022/04/03 11:21:23;;;;;;;7.33;6.60;;;;;;;;;;5073896;28;20406;-68
2022/04/03 11:23:49;;;;;;;7.77;7.00;;;;;;;;;;5073575;28;20893;-71
2022/04/03 11:26:18;;;;;;;7.73;7.33;;;;;;;;;;5072708;28;20440;-71
2022/04/03 11:28:44;;;;;;;8.60;8.00;;;;;;;;;;5073534;28;20431;-71
2022/04/03 11:31:11;;;;;;;6.77;6.40;;;;;;;;;;5073579;28;20857;-71
2022/04/03 11:33:37;;;;;;;7.67;7.17;;;;;;;;;;5073554;28;20429;-71
2022/04/03 11:36:05;;;;;;;29.77;22.17;;;;;;;;;;5073497;28;20381;-71
2022/04/03 11:38:38;;;;;;;21.73;16.67;;;;;;;;;;5073436;28;20394;-73
2022/04/03 11:41:05;;;;;;;9.90;9.10;;;;;;;;;;5073361;28;20560;-70
2022/04/03 11:43:32;;;;;;;9.43;8.63;;;;;;;;;;5073438;28;20372;-71
2022/04/03 11:45:59;;;;;;;10.30;9.50;;;;;;;;;;5073206;28;20965;-72
2022/04/03 11:48:32;;;;;;;8.90;8.30;;;;;;;;;;5071965;28;20421;-72
2022/04/03 11:51:08;;;;;;;9.83;9.00;;;;;;;;;;5073597;28;20413;-71
2022/04/03 11:53:34;;;;;;;10.83;9.77;;;;;;;;;;5072035;28;20479;-70
2022/04/03 11:56:06;;;;;;;10.90;8.57;;;;;;;;;;5073249;28;20391;-72
2022/04/03 11:58:36;;;;;;;10.87;9.90;;;;;;;;;;5073242;28;20543;-71
2022/04/03 12:01:02;;;;;;;9.70;8.90;;;;;;;;;;5073177;28;20761;-72
2022/04/03 12:03:28;;;;;;;9.97;8.90;;;;;;;;;;5073144;28;20393;-71
2022/04/03 12:06:15;;;;;;;9.20;8.27;;;;;;;;;;5073103;28;20447;-70
2022/04/03 12:08:41;;;;;;;9.70;8.80;;;;;;;;;;5072966;28;20452;-72
2022/04/03 12:11:17;;;;;;;8.43;8.00;;;;;;;;;;5073071;28;20381;-70
2022/04/03 12:13:43;;;;;;;8.37;7.57;;;;;;;;;;5073322;28;20730;-71
2022/04/03 12:16:09;;;;;;;9.83;9.03;;;;;;;;;;5073029;28;20434;-70
2022/04/03 12:19:08;;;;;;;10.00;9.20;;;;;;;;;;5072971;28;20417;-73
2022/04/03 12:22:04;;;;;;;20.20;16.40;;;;;;;;;;5050481;28;20429;-70
2022/04/03 12:24:31;;;;;;;10.73;8.83;;;;;;;;;;5072861;28;20397;-71
2022/04/03 12:27:03;;;;;;;8.63;8.03;;;;;;;;;;5072885;28;20877;-70
2022/04/03 12:29:30;;;;;;;11.43;10.50;;;;;;;;;;5072907;28;20410;-67
2022/04/03 12:32:05;;;;;;;9.23;8.57;;;;;;;;;;5073168;28;20423;-69
2022/04/03 12:34:32;;;;;;;12.90;8.17;;;;;;;;;;5073138;28;20445;-71
2022/04/03 12:36:59;;;;;;;8.50;7.80;;;;;;;;;;5073454;28;20410;-69
2022/04/03 12:39:31;;;;;;;9.90;9.10;;;;;;;;;;5076594;28;20942;-71
2022/04/03 12:42:08;;;;;;;7.87;7.47;;;;;;;;;;5076541;28;20462;-69
2022/04/03 12:44:42;;;;;;;8.07;7.57;;;;;;;;;;5076522;28;20369;-69
2022/04/03 12:47:20;;;;;;;7.57;7.00;;;;;;;;;;5075202;28;20819;-68
2022/04/03 12:49:47;;;;;;;6.83;6.33;;;;;;;;;;5076339;28;20418;-68
2022/04/03 12:52:18;;;;;;;6.80;6.50;;;;;;;;;;5076273;28;20951;-71
2022/04/03 12:54:46;;;;;;;6.70;6.20;;;;;;;;;;5076307;28;20413;-73
2022/04/03 13:00:08;;;;;;;7.53;7.13;;;;;;;;;;5076245;28;20416;-70
2022/04/03 13:02:38;;;;;;;6.87;6.47;;;;;;;;;;5076221;28;20383;-70
2022/04/03 13:05:04;;;;;;;8.13;6.70;;;;;;;;;;5076169;28;20962;-72
2022/04/03 13:07:30;;;;;;;7.57;6.73;;;;;;;;;;5076131;28;20440;-70
2022/04/03 13:10:00;;;;;;;7.63;7.20;;;;;;;;;;5076075;28;20381;-69
2022/04/03 13:12:27;;;;;;;7.40;6.70;;;;;;;;;;5074896;28;20634;-71
2022/04/03 13:14:54;;;;;;;7.00;6.70;;;;;;;;;;5076570;28;20410;-70
2022/04/03 13:17:20;;;;;;;8.27;7.77;;;;;;;;;;5076357;28;20441;-71
2022/04/03 13:19:46;;;;;;;10.50;9.70;;;;;;;;;;5076161;28;20425;-72
2022/04/03 13:22:15;;;;;;;7.87;7.33;;;;;;;;;;5075920;28;20377;-70
2022/04/03 13:24:41;;;;;;;7.60;7.20;;;;;;;;;;5076035;28;20425;-70
2022/04/03 13:27:07;;;;;;;8.83;8.23;;;;;;;;;;5074455;28;20759;-71
2022/04/03 13:29:34;;;;;;;7.93;7.07;;;;;;;;;;5075884;28;20406;-70
2022/04/03 13:32:00;;;;;;;6.90;6.40;;;;;;;;;;5075752;28;20459;-70
2022/04/03 13:34:26;;;;;;;8.33;7.63;;;;;;;;;;5075883;28;20493;-71
2022/04/03 13:36:52;;;;;;;8.30;7.60;;;;;;;;;;5075595;28;20414;-69
2022/04/03 13:39:18;;;;;;;7.13;6.77;;;;;;;;;;5075533;28;20385;-72
2022/04/03 13:41:45;;;;;;;5.50;5.20;;;;;;;;;;5075365;28;20473;-72
2022/04/03 13:44:14;;;;;;;6.00;5.77;;;;;;;;;;5075464;28;20457;-72
2022/04/03 13:46:41;;;;;;;5.70;5.50;;;;;;;;;;5075391;28;20469;-70
2022/04/03 13:49:07;;;;;;;5.80;5.50;;;;;;;;;;5074914;28;20418;-71
2022/04/03 13:51:35;;;;;;;5.77;5.40;;;;;;;;;;5075448;28;20456;-70
2022/04/03 13:54:01;;;;;;;10.73;9.93;;;;;;;;;;5075310;28;20453;-70
2022/04/03 13:56:27;;;;;;;4.60;4.40;;;;;;;;;;5075288;28;20395;-69
2022/04/03 13:58:53;;;;;;;9.20;8.20;;;;;;;;;;5075412;28;20385;-70
2022/04/03 14:01:20;;;;;;;6.20;5.90;;;;;;;;;;5075145;28;20452;-70
2022/04/03 14:03:47;;;;;;;4.60;4.40;;;;;;;;;;5073756;28;20430;-71
2022/04/03 14:06:14;;;;;;;5.27;5.07;;;;;;;;;;5073311;28;20992;-72
2022/04/03 14:08:40;;;;;;;5.40;5.20;;;;;;;;;;5075047;28;20547;-72
2022/04/03 14:11:06;;;;;;;5.17;4.93;;;;;;;;;;5075021;28;20410;-74
2022/04/03 14:13:33;;;;;;;6.10;5.70;;;;;;;;;;5074887;28;20424;-72
2022/04/03 14:15:59;;;;;;;5.57;5.37;;;;;;;;;;5074954;28;20799;-71
2022/04/03 14:18:26;;;;;;;5.83;5.53;;;;;;;;;;5074870;28;20420;-72
2022/04/03 14:20:55;;;;;;;12.33;10.90;;;;;;;;;;5074699;28;20405;-70
2022/04/03 14:23:21;;;;;;;5.90;5.70;;;;;;;;;;5074717;28;20418;-69
2022/04/03 14:25:48;;;;;;;5.30;5.10;;;;;;;;;;5074539;28;20448;-70
2022/04/03 14:28:14;;;;;;;5.57;5.03;;;;;;;;;;5074615;28;20844;-71